createdAt,value
2022-12-18T00:00:12.523Z,-2.94
2022-12-18T00:00:25.494Z,-2.94
2022-12-18T00:00:59.080Z,-2.94
2022-12-18T00:01:32.384Z,-2.94
2022-12-18T00:01:46.348Z,-2.94
2022-12-18T00:01:59.933Z,-2.94
2022-12-18T00:02:13.099Z,-2.95
2022-12-18T00:02:25.697Z,-2.96
2022-12-18T00:02:39.470Z,-2.95
2022-12-18T00:02:53.117Z,-2.95
2022-12-18T00:03:06.025Z,-2.94
2022-12-18T00:03:18.860Z,-2.95
2022-12-18T00:03:32.751Z,-2.97
2022-12-18T00:03:46.686Z,-2.97
2022-12-18T00:03:59.978Z,-2.97
2022-12-18T00:04:21.032Z,-2.97
2022-12-18T00:04:33.821Z,-2.96
2022-12-18T00:04:46.404Z,-2.97
2022-12-18T00:04:59.866Z,-2.98
2022-12-18T00:05:12.385Z,-2.99
2022-12-18T00:05:25.238Z,-3.00
2022-12-18T00:05:37.818Z,-3.00
2022-12-18T00:05:52.010Z,-3.01
2022-12-18T00:06:04.654Z,-3.01
2022-12-18T00:06:18.082Z,-3.03
2022-12-18T00:06:31.277Z,-3.04
2022-12-18T00:06:44.113Z,-3.06
2022-12-18T00:06:57.189Z,-3.06
2022-12-18T00:07:10.837Z,-3.07
2022-12-18T00:07:23.386Z,-3.08
2022-12-18T00:07:36.797Z,-3.09
2022-12-18T00:07:49.365Z,-3.09
2022-12-18T00:08:02.063Z,-3.09
2022-12-18T00:08:15.014Z,-3.09
2022-12-18T00:08:28.608Z,-3.09
2022-12-18T00:08:41.225Z,-3.10
2022-12-18T00:08:54.492Z,-3.11
2022-12-18T00:09:07.034Z,-3.11
2022-12-18T00:09:20.350Z,-3.12
2022-12-18T00:09:40.062Z,-3.13
2022-12-18T00:09:53.166Z,-3.11
2022-12-18T00:10:08.047Z,-3.13
2022-12-18T00:10:20.680Z,-3.11
2022-12-18T00:10:33.225Z,-3.13
2022-12-18T00:10:46.610Z,-3.13
2022-12-18T00:11:07.107Z,-3.11
2022-12-18T00:11:21.784Z,-3.13
2022-12-18T00:11:34.355Z,-3.12
2022-12-18T00:11:47.132Z,-3.11
2022-12-18T00:12:29.992Z,-3.10
2022-12-18T00:12:42.963Z,-3.11
2022-12-18T00:12:55.626Z,-3.12
2022-12-18T00:13:10.089Z,-3.12
2022-12-18T00:13:23.073Z,-3.11
2022-12-18T00:13:37.585Z,-3.12
2022-12-18T00:13:51.247Z,-3.11
2022-12-18T00:14:03.962Z,-3.11
2022-12-18T00:14:16.734Z,-3.13
2022-12-18T00:14:29.284Z,-3.13
2022-12-18T00:14:41.866Z,-3.13
2022-12-18T00:14:56.777Z,-3.14
2022-12-18T00:15:10.050Z,-3.14
2022-12-18T00:15:22.645Z,-3.14
2022-12-18T00:15:35.889Z,-3.14
2022-12-18T00:15:48.470Z,-3.13
2022-12-18T00:16:03.223Z,-3.14
2022-12-18T00:16:19.549Z,-3.14
2022-12-18T00:16:34.058Z,-3.14
2022-12-18T00:16:47.802Z,-3.13
2022-12-18T00:17:01.704Z,-3.15
2022-12-18T00:17:14.283Z,-3.13
2022-12-18T00:17:26.855Z,-3.13
2022-12-18T00:17:40.362Z,-3.14
2022-12-18T00:17:52.973Z,-3.13
2022-12-18T00:18:05.884Z,-3.14
2022-12-18T00:18:20.675Z,-3.13
2022-12-18T00:18:33.869Z,-3.15
2022-12-18T00:18:46.748Z,-3.15
2022-12-18T00:19:02.565Z,-3.17
2022-12-18T00:19:16.856Z,-3.18
2022-12-18T00:19:29.488Z,-3.18
2022-12-18T00:19:42.330Z,-3.18
2022-12-18T00:19:54.909Z,-3.18
2022-12-18T00:20:09.036Z,-3.18
2022-12-18T00:20:26.497Z,-3.19
2022-12-18T00:20:41.722Z,-3.18
2022-12-18T00:20:54.427Z,-3.17
2022-12-18T00:21:09.314Z,-3.19
2022-12-18T00:21:22.934Z,-3.19
2022-12-18T00:21:35.764Z,-3.19
2022-12-18T00:21:48.303Z,-3.19
2022-12-18T00:22:01.880Z,-3.20
2022-12-18T00:22:14.441Z,-3.19
2022-12-18T00:22:27.050Z,-3.19
2022-12-18T00:22:39.689Z,-3.20
2022-12-18T00:22:52.518Z,-3.20
2022-12-18T00:23:05.623Z,-3.21
2022-12-18T00:23:18.431Z,-3.21
2022-12-18T00:23:32.428Z,-3.21
2022-12-18T00:23:48.543Z,-3.22
2022-12-18T00:24:01.851Z,-3.23
2022-12-18T00:24:14.446Z,-3.23
2022-12-18T00:24:27.433Z,-3.22
2022-12-18T00:24:40.336Z,-3.22
2022-12-18T00:24:52.956Z,-3.22
2022-12-18T00:25:07.121Z,-3.23
2022-12-18T00:25:19.915Z,-3.23
2022-12-18T00:25:33.782Z,-3.22
2022-12-18T00:25:46.331Z,-3.22
2022-12-18T00:26:00.529Z,-3.23
2022-12-18T00:26:18.017Z,-3.23
2022-12-18T00:26:32.672Z,-3.23
2022-12-18T00:26:46.232Z,-3.24
2022-12-18T00:26:58.810Z,-3.25
2022-12-18T00:27:11.358Z,-3.26
2022-12-18T00:27:23.968Z,-3.26
2022-12-18T00:27:36.591Z,-3.26
2022-12-18T00:27:49.283Z,-3.26
2022-12-18T00:28:01.920Z,-3.26
2022-12-18T00:28:14.517Z,-3.26
2022-12-18T00:28:27.443Z,-3.26
2022-12-18T00:28:41.051Z,-3.26
2022-12-18T00:28:54.389Z,-3.25
2022-12-18T00:29:09.243Z,-3.26
2022-12-18T00:29:21.821Z,-3.27
2022-12-18T00:29:34.568Z,-3.26
2022-12-18T00:29:48.182Z,-3.26
2022-12-18T00:30:02.148Z,-3.25
2022-12-18T00:30:15.000Z,-3.26
2022-12-18T00:30:27.987Z,-3.26
2022-12-18T00:30:40.584Z,-3.25
2022-12-18T00:31:01.451Z,-3.26
2022-12-18T00:31:15.615Z,-3.27
2022-12-18T00:31:28.573Z,-3.28
2022-12-18T00:31:43.923Z,-3.28
2022-12-18T00:31:56.607Z,-3.29
2022-12-18T00:32:09.218Z,-3.29
2022-12-18T00:32:21.852Z,-3.28
2022-12-18T00:32:34.716Z,-3.28
2022-12-18T00:32:47.315Z,-3.28
2022-12-18T00:32:59.955Z,-3.28
2022-12-18T00:33:13.594Z,-3.27
2022-12-18T00:33:26.198Z,-3.29
2022-12-18T00:33:40.183Z,-3.29
2022-12-18T00:33:55.375Z,-3.26
2022-12-18T00:34:10.783Z,-3.26
2022-12-18T00:34:23.353Z,-3.26
2022-12-18T00:34:37.100Z,-3.28
2022-12-18T00:34:49.724Z,-3.29
2022-12-18T00:35:02.321Z,-3.28
2022-12-18T00:35:14.964Z,-3.30
2022-12-18T00:35:27.568Z,-3.31
2022-12-18T00:35:40.170Z,-3.31
2022-12-18T00:35:52.754Z,-3.31
2022-12-18T00:36:08.409Z,-3.33
2022-12-18T00:36:23.336Z,-3.33
2022-12-18T00:36:36.148Z,-3.34
2022-12-18T00:36:49.728Z,-3.32
2022-12-18T00:37:02.330Z,-3.34
2022-12-18T00:37:19.894Z,-3.33
2022-12-18T00:37:35.433Z,-3.32
2022-12-18T00:37:48.188Z,-3.33
2022-12-18T00:38:00.766Z,-3.32
2022-12-18T00:38:14.332Z,-3.32
2022-12-18T00:38:26.928Z,-3.32
2022-12-18T00:38:40.224Z,-3.32
2022-12-18T00:38:55.231Z,-3.31
2022-12-18T00:39:09.201Z,-3.31
2022-12-18T00:39:22.046Z,-3.31
2022-12-18T00:39:34.774Z,-3.30
2022-12-18T00:39:49.598Z,-3.30
2022-12-18T00:40:02.292Z,-3.28
2022-12-18T00:40:14.906Z,-3.30
2022-12-18T00:40:28.534Z,-3.30
2022-12-18T00:40:41.117Z,-3.30
2022-12-18T00:40:53.705Z,-3.30
2022-12-18T00:41:07.189Z,-3.30
2022-12-18T00:41:34.973Z,-3.30
2022-12-18T00:42:06.086Z,-3.32
2022-12-18T00:42:37.069Z,-3.33
2022-12-18T00:42:58.626Z,-3.34
2022-12-18T00:43:11.341Z,-3.34
2022-12-18T00:43:24.187Z,-3.34
2022-12-18T00:43:37.975Z,-3.35
2022-12-18T00:43:50.772Z,-3.36
2022-12-18T00:44:03.854Z,-3.34
2022-12-18T00:44:19.214Z,-3.35
2022-12-18T00:44:31.831Z,-3.34
2022-12-18T00:44:45.390Z,-3.34
2022-12-18T00:44:57.976Z,-3.34
2022-12-18T00:45:13.182Z,-3.33
2022-12-18T00:45:27.746Z,-3.33
2022-12-18T00:45:40.394Z,-3.34
2022-12-18T00:45:54.058Z,-3.35
2022-12-18T00:46:07.487Z,-3.34
2022-12-18T00:46:21.192Z,-3.36
2022-12-18T00:46:34.315Z,-3.36
2022-12-18T00:46:48.322Z,-3.36
2022-12-18T00:47:00.923Z,-3.37
2022-12-18T00:47:13.603Z,-3.35
2022-12-18T00:47:26.181Z,-3.38
2022-12-18T00:47:38.830Z,-3.36
2022-12-18T00:47:51.493Z,-3.35
2022-12-18T00:48:05.552Z,-3.35
2022-12-18T00:48:18.155Z,-3.34
2022-12-18T00:48:30.812Z,-3.35
2022-12-18T00:48:43.837Z,-3.34
2022-12-18T00:48:56.531Z,-3.33
2022-12-18T00:49:09.323Z,-3.34
2022-12-18T00:49:22.090Z,-3.32
2022-12-18T00:49:35.648Z,-3.33
2022-12-18T00:49:48.230Z,-3.32
2022-12-18T00:50:01.307Z,-3.32
2022-12-18T00:50:13.924Z,-3.32
2022-12-18T00:50:27.193Z,-3.31
2022-12-18T00:50:39.800Z,-3.30
2022-12-18T00:50:52.916Z,-3.31
2022-12-18T00:51:05.760Z,-3.31
2022-12-18T00:51:19.307Z,-3.30
2022-12-18T00:51:32.048Z,-3.29
2022-12-18T00:51:45.032Z,-3.29
2022-12-18T00:51:57.676Z,-3.30
2022-12-18T00:52:10.758Z,-3.28
2022-12-18T00:52:23.518Z,-3.28
2022-12-18T00:52:37.272Z,-3.29
2022-12-18T00:52:49.952Z,-3.29
2022-12-18T00:53:02.538Z,-3.29
2022-12-18T00:53:15.145Z,-3.28
2022-12-18T00:53:27.801Z,-3.28
2022-12-18T00:53:40.774Z,-3.28
2022-12-18T00:53:54.026Z,-3.27
2022-12-18T00:54:06.634Z,-3.27
2022-12-18T00:54:20.376Z,-3.27
2022-12-18T00:54:33.292Z,-3.27
2022-12-18T00:54:45.862Z,-3.26
2022-12-18T00:55:03.068Z,-3.26
2022-12-18T00:55:19.328Z,-3.25
2022-12-18T00:55:33.117Z,-3.25
2022-12-18T00:55:46.711Z,-3.25
2022-12-18T00:55:59.355Z,-3.26
2022-12-18T00:56:11.950Z,-3.26
2022-12-18T00:56:25.341Z,-3.29
2022-12-18T00:56:48.038Z,-3.30
2022-12-18T00:57:01.251Z,-3.31
2022-12-18T00:57:13.865Z,-3.31
2022-12-18T00:57:26.449Z,-3.33
2022-12-18T00:57:39.080Z,-3.33
2022-12-18T00:57:54.217Z,-3.34
2022-12-18T00:58:06.790Z,-3.34
2022-12-18T00:58:19.917Z,-3.34
2022-12-18T00:58:32.535Z,-3.34
2022-12-18T00:58:45.148Z,-3.34
2022-12-18T00:58:57.995Z,-3.34
2022-12-18T00:59:10.594Z,-3.35
2022-12-18T00:59:24.280Z,-3.34
2022-12-18T00:59:36.861Z,-3.35
2022-12-18T00:59:49.427Z,-3.34
2022-12-18T01:00:02.171Z,-3.35
2022-12-18T01:00:18.191Z,-3.34
2022-12-18T01:00:30.750Z,-3.34
2022-12-18T01:00:43.601Z,-3.34
2022-12-18T01:00:56.242Z,-3.32
2022-12-18T01:01:09.478Z,-3.32
2022-12-18T01:01:23.383Z,-3.32
2022-12-18T01:01:36.159Z,-3.33
2022-12-18T01:01:49.041Z,-3.32
2022-12-18T01:02:01.846Z,-3.31
2022-12-18T01:02:14.629Z,-3.31
2022-12-18T01:02:27.505Z,-3.30
2022-12-18T01:02:40.942Z,-3.30
2022-12-18T01:02:54.761Z,-3.28
2022-12-18T01:03:07.780Z,-3.28
2022-12-18T01:03:20.722Z,-3.28
2022-12-18T01:03:33.348Z,-3.27
2022-12-18T01:03:47.567Z,-3.28
2022-12-18T01:04:01.196Z,-3.29
2022-12-18T01:04:15.153Z,-3.30
2022-12-18T01:04:27.905Z,-3.32
2022-12-18T01:04:40.567Z,-3.33
2022-12-18T01:04:53.208Z,-3.35
2022-12-18T01:05:06.701Z,-3.37
2022-12-18T01:05:19.457Z,-3.37
2022-12-18T01:05:32.802Z,-3.38
2022-12-18T01:05:45.394Z,-3.39
2022-12-18T01:05:59.191Z,-3.39
2022-12-18T01:06:13.987Z,-3.39
2022-12-18T01:06:26.740Z,-3.39
2022-12-18T01:06:39.327Z,-3.40
2022-12-18T01:06:52.860Z,-3.39
2022-12-18T01:07:05.442Z,-3.40
2022-12-18T01:07:18.998Z,-3.39
2022-12-18T01:07:31.784Z,-3.39
2022-12-18T01:07:44.338Z,-3.39
2022-12-18T01:07:57.703Z,-3.39
2022-12-18T01:08:10.623Z,-3.39
2022-12-18T01:08:23.314Z,-3.38
2022-12-18T01:08:36.595Z,-3.38
2022-12-18T01:08:49.204Z,-3.37
2022-12-18T01:09:03.172Z,-3.37
2022-12-18T01:09:16.102Z,-3.37
2022-12-18T01:09:28.854Z,-3.37
2022-12-18T01:09:41.571Z,-3.38
2022-12-18T01:09:54.155Z,-3.38
2022-12-18T01:10:08.612Z,-3.38
2022-12-18T01:10:21.542Z,-3.37
2022-12-18T01:10:35.219Z,-3.38
2022-12-18T01:10:47.773Z,-3.37
2022-12-18T01:11:00.398Z,-3.38
2022-12-18T01:11:15.615Z,-3.37
2022-12-18T01:11:28.204Z,-3.38
2022-12-18T01:11:41.105Z,-3.38
2022-12-18T01:11:53.729Z,-3.37
2022-12-18T01:12:08.456Z,-3.37
2022-12-18T01:12:21.044Z,-3.37
2022-12-18T01:12:34.132Z,-3.37
2022-12-18T01:12:46.728Z,-3.36
2022-12-18T01:12:59.704Z,-3.35
2022-12-18T01:13:12.298Z,-3.35
2022-12-18T01:13:24.946Z,-3.36
2022-12-18T01:13:37.859Z,-3.34
2022-12-18T01:13:51.819Z,-3.34
2022-12-18T01:14:05.091Z,-3.33
2022-12-18T01:14:17.695Z,-3.33
2022-12-18T01:14:30.298Z,-3.33
2022-12-18T01:14:42.873Z,-3.32
2022-12-18T01:14:55.484Z,-3.32
2022-12-18T01:15:10.280Z,-3.33
2022-12-18T01:15:24.423Z,-3.31
2022-12-18T01:15:37.134Z,-3.31
2022-12-18T01:15:50.257Z,-3.31
2022-12-18T01:16:02.917Z,-3.31
2022-12-18T01:16:17.915Z,-3.31
2022-12-18T01:16:32.167Z,-3.31
2022-12-18T01:16:45.103Z,-3.31
2022-12-18T01:16:57.776Z,-3.31
2022-12-18T01:17:10.381Z,-3.30
2022-12-18T01:17:23.074Z,-3.30
2022-12-18T01:17:35.776Z,-3.29
2022-12-18T01:17:48.342Z,-3.30
2022-12-18T01:18:01.906Z,-3.30
2022-12-18T01:18:14.475Z,-3.29
2022-12-18T01:18:27.321Z,-3.29
2022-12-18T01:18:40.472Z,-3.28
2022-12-18T01:18:54.729Z,-3.29
2022-12-18T01:19:07.514Z,-3.28
2022-12-18T01:19:20.081Z,-3.27
2022-12-18T01:19:32.984Z,-3.26
2022-12-18T01:19:45.566Z,-3.26
2022-12-18T01:19:59.123Z,-3.27
2022-12-18T01:20:13.128Z,-3.27
2022-12-18T01:20:25.785Z,-3.27
2022-12-18T01:20:39.288Z,-3.29
2022-12-18T01:20:52.141Z,-3.31
2022-12-18T01:21:07.890Z,-3.32
2022-12-18T01:21:21.543Z,-3.34
2022-12-18T01:21:34.175Z,-3.34
2022-12-18T01:21:46.776Z,-3.36
2022-12-18T01:21:59.569Z,-3.35
2022-12-18T01:22:12.844Z,-3.37
2022-12-18T01:22:25.799Z,-3.36
2022-12-18T01:22:38.631Z,-3.37
2022-12-18T01:22:51.214Z,-3.39
2022-12-18T01:23:03.776Z,-3.39
2022-12-18T01:23:16.422Z,-3.40
2022-12-18T01:23:30.108Z,-3.42
2022-12-18T01:23:43.090Z,-3.42
2022-12-18T01:23:57.274Z,-3.41
2022-12-18T01:24:13.070Z,-3.43
2022-12-18T01:24:25.938Z,-3.45
2022-12-18T01:24:38.580Z,-3.45
2022-12-18T01:24:51.158Z,-3.45
2022-12-18T01:25:06.386Z,-3.43
2022-12-18T01:25:19.286Z,-3.44
2022-12-18T01:25:31.842Z,-3.45
2022-12-18T01:25:44.404Z,-3.44
2022-12-18T01:25:56.968Z,-3.43
2022-12-18T01:26:11.129Z,-3.43
2022-12-18T01:26:25.716Z,-3.41
2022-12-18T01:26:38.365Z,-3.41
2022-12-18T01:26:50.947Z,-3.39
2022-12-18T01:27:03.680Z,-3.41
2022-12-18T01:27:16.404Z,-3.39
2022-12-18T01:27:29.032Z,-3.41
2022-12-18T01:27:41.644Z,-3.40
2022-12-18T01:27:55.304Z,-3.41
2022-12-18T01:28:07.912Z,-3.43
2022-12-18T01:28:20.510Z,-3.41
2022-12-18T01:28:33.137Z,-3.42
2022-12-18T01:28:45.777Z,-3.43
2022-12-18T01:28:59.645Z,-3.42
2022-12-18T01:29:12.238Z,-3.43
2022-12-18T01:29:24.857Z,-3.43
2022-12-18T01:29:37.667Z,-3.43
2022-12-18T01:29:50.621Z,-3.44
2022-12-18T01:30:04.176Z,-3.43
2022-12-18T01:30:16.909Z,-3.42
2022-12-18T01:30:30.819Z,-3.41
2022-12-18T01:30:44.404Z,-3.41
2022-12-18T01:30:56.981Z,-3.41
2022-12-18T01:31:14.336Z,-3.40
2022-12-18T01:31:28.396Z,-3.40
2022-12-18T01:31:41.091Z,-3.39
2022-12-18T01:31:56.710Z,-3.38
2022-12-18T01:32:09.757Z,-3.38
2022-12-18T01:32:24.100Z,-3.38
2022-12-18T01:32:36.717Z,-3.37
2022-12-18T01:32:49.320Z,-3.36
2022-12-18T01:33:02.084Z,-3.34
2022-12-18T01:33:14.801Z,-3.33
2022-12-18T01:33:27.402Z,-3.32
2022-12-18T01:33:40.229Z,-3.32
2022-12-18T01:33:54.926Z,-3.32
2022-12-18T01:34:07.864Z,-3.32
2022-12-18T01:34:20.452Z,-3.32
2022-12-18T01:34:33.100Z,-3.34
2022-12-18T01:34:45.943Z,-3.34
2022-12-18T01:34:58.638Z,-3.35
2022-12-18T01:35:11.224Z,-3.36
2022-12-18T01:35:24.788Z,-3.36
2022-12-18T01:35:41.953Z,-3.37
2022-12-18T01:35:54.600Z,-3.38
2022-12-18T01:36:07.754Z,-3.38
2022-12-18T01:36:22.747Z,-3.40
2022-12-18T01:36:37.648Z,-3.41
2022-12-18T01:36:53.099Z,-3.43
2022-12-18T01:37:06.800Z,-3.43
2022-12-18T01:37:19.378Z,-3.45
2022-12-18T01:37:32.105Z,-3.44
2022-12-18T01:37:44.701Z,-3.44
2022-12-18T01:37:57.464Z,-3.44
2022-12-18T01:38:10.135Z,-3.45
2022-12-18T01:38:24.178Z,-3.45
2022-12-18T01:38:36.752Z,-3.44
2022-12-18T01:38:50.064Z,-3.46
2022-12-18T01:39:08.839Z,-3.44
2022-12-18T01:39:21.409Z,-3.44
2022-12-18T01:39:34.578Z,-3.44
2022-12-18T01:39:47.246Z,-3.44
2022-12-18T01:40:00.932Z,-3.44
2022-12-18T01:40:13.712Z,-3.44
2022-12-18T01:40:26.286Z,-3.43
2022-12-18T01:40:38.902Z,-3.44
2022-12-18T01:40:58.300Z,-3.43
2022-12-18T01:41:11.096Z,-3.42
2022-12-18T01:41:48.754Z,-3.41
2022-12-18T01:42:03.174Z,-3.41
2022-12-18T01:42:17.377Z,-3.41
2022-12-18T01:42:30.080Z,-3.42
2022-12-18T01:42:42.974Z,-3.42
2022-12-18T01:42:55.584Z,-3.44
2022-12-18T01:43:10.412Z,-3.44
2022-12-18T01:43:23.976Z,-3.44
2022-12-18T01:43:47.757Z,-3.44
2022-12-18T01:44:00.341Z,-3.44
2022-12-18T01:44:45.932Z,-3.45
2022-12-18T01:45:03.557Z,-3.44
2022-12-18T01:45:25.153Z,-3.41
2022-12-18T01:45:39.351Z,-3.42
2022-12-18T01:45:52.011Z,-3.41
2022-12-18T01:46:04.666Z,-3.43
2022-12-18T01:46:19.875Z,-3.42
2022-12-18T01:46:33.507Z,-3.42
2022-12-18T01:46:46.090Z,-3.43
2022-12-18T01:46:58.750Z,-3.43
2022-12-18T01:47:15.285Z,-3.44
2022-12-18T01:47:33.043Z,-3.45
2022-12-18T01:47:49.579Z,-3.44
2022-12-18T01:48:04.505Z,-3.44
2022-12-18T01:48:17.108Z,-3.44
2022-12-18T01:48:30.704Z,-3.45
2022-12-18T01:48:44.819Z,-3.43
2022-12-18T01:49:00.058Z,-3.44
2022-12-18T01:49:12.634Z,-3.44
2022-12-18T01:49:25.320Z,-3.44
2022-12-18T01:49:37.916Z,-3.45
2022-12-18T01:49:50.949Z,-3.45
2022-12-18T01:50:07.253Z,-3.43
2022-12-18T01:50:24.231Z,-3.43
2022-12-18T01:50:40.304Z,-3.42
2022-12-18T01:50:52.972Z,-3.42
2022-12-18T01:51:07.017Z,-3.41
2022-12-18T01:51:19.901Z,-3.41
2022-12-18T01:51:34.370Z,-3.41
2022-12-18T01:51:47.311Z,-3.40
2022-12-18T01:51:59.885Z,-3.39
2022-12-18T01:52:12.716Z,-3.37
2022-12-18T01:52:27.129Z,-3.36
2022-12-18T01:52:44.925Z,-3.36
2022-12-18T01:53:01.084Z,-3.36
2022-12-18T01:53:17.904Z,-3.37
2022-12-18T01:53:30.486Z,-3.36
2022-12-18T01:53:45.326Z,-3.37
2022-12-18T01:53:59.708Z,-3.38
2022-12-18T01:54:12.288Z,-3.39
2022-12-18T01:54:24.893Z,-3.39
2022-12-18T01:54:37.643Z,-3.41
2022-12-18T01:54:51.688Z,-3.40
2022-12-18T01:55:08.348Z,-3.42
2022-12-18T01:55:24.686Z,-3.41
2022-12-18T01:55:42.059Z,-3.41
2022-12-18T01:55:57.000Z,-3.43
2022-12-18T01:56:13.391Z,-3.42
2022-12-18T01:56:27.060Z,-3.42
2022-12-18T01:56:39.668Z,-3.42
2022-12-18T01:56:52.268Z,-3.43
2022-12-18T01:57:05.024Z,-3.41
2022-12-18T01:57:17.980Z,-3.40
2022-12-18T01:57:30.921Z,-3.41
2022-12-18T01:57:43.899Z,-3.40
2022-12-18T01:57:58.763Z,-3.40
2022-12-18T01:58:12.598Z,-3.40
2022-12-18T01:58:31.338Z,-3.38
2022-12-18T01:58:51.564Z,-3.36
2022-12-18T01:59:09.633Z,-3.35
2022-12-18T01:59:22.517Z,-3.34
2022-12-18T01:59:36.799Z,-3.37
2022-12-18T01:59:53.664Z,-3.36
2022-12-18T02:00:10.931Z,-3.38
2022-12-18T02:00:24.950Z,-3.38
2022-12-18T02:00:39.092Z,-3.39
2022-12-18T02:00:52.003Z,-3.40
2022-12-18T02:01:06.551Z,-3.41
2022-12-18T02:01:19.446Z,-3.41
2022-12-18T02:01:33.832Z,-3.41
2022-12-18T02:01:46.806Z,-3.41
2022-12-18T02:02:02.167Z,-3.42
2022-12-18T02:02:16.785Z,-3.41
2022-12-18T02:02:31.478Z,-3.42
2022-12-18T02:02:45.313Z,-3.42
2022-12-18T02:02:58.189Z,-3.40
2022-12-18T02:03:12.158Z,-3.38
2022-12-18T02:03:24.970Z,-3.38
2022-12-18T02:03:38.187Z,-3.38
2022-12-18T02:03:51.377Z,-3.38
2022-12-18T02:04:21.783Z,-3.39
2022-12-18T02:04:34.523Z,-3.39
2022-12-18T02:04:49.571Z,-3.41
2022-12-18T02:05:05.051Z,-3.41
2022-12-18T02:05:20.267Z,-3.43
2022-12-18T02:05:43.857Z,-3.42
2022-12-18T02:06:03.077Z,-3.43
2022-12-18T02:06:20.735Z,-3.43
2022-12-18T02:06:39.998Z,-3.43
2022-12-18T02:06:59.245Z,-3.43
2022-12-18T02:07:18.500Z,-3.43
2022-12-18T02:07:41.792Z,-3.42
2022-12-18T02:08:04.801Z,-3.41
2022-12-18T02:08:23.504Z,-3.41
2022-12-18T02:08:44.360Z,-3.41
2022-12-18T02:09:08.615Z,-3.40
2022-12-18T02:09:28.118Z,-3.40
2022-12-18T02:09:47.984Z,-3.38
2022-12-18T02:10:08.490Z,-3.39
2022-12-18T02:10:28.855Z,-3.37
2022-12-18T02:10:49.364Z,-3.34
2022-12-18T02:11:07.819Z,-3.35
2022-12-18T02:11:32.223Z,-3.36
2022-12-18T02:11:54.104Z,-3.38
2022-12-18T02:12:20.412Z,-3.40
2022-12-18T02:12:41.146Z,-3.40
2022-12-18T02:13:01.648Z,-3.40
2022-12-18T02:13:22.154Z,-3.40
2022-12-18T02:13:45.862Z,-3.40
2022-12-18T02:14:09.704Z,-3.39
2022-12-18T02:14:30.061Z,-3.38
2022-12-18T02:14:49.299Z,-3.39
2022-12-18T02:15:09.573Z,-3.38
2022-12-18T02:15:31.640Z,-3.37
2022-12-18T02:15:52.550Z,-3.35
2022-12-18T02:16:15.402Z,-3.37
2022-12-18T02:16:33.503Z,-3.37
2022-12-18T02:16:54.451Z,-3.37
2022-12-18T02:17:12.712Z,-3.37
2022-12-18T02:17:33.378Z,-3.38
2022-12-18T02:17:51.460Z,-3.37
2022-12-18T02:18:09.483Z,-3.37
2022-12-18T02:18:27.206Z,-3.38
2022-12-18T02:18:44.594Z,-3.38
2022-12-18T02:19:02.720Z,-3.37
2022-12-18T02:19:30.177Z,-3.37
2022-12-18T02:19:56.101Z,-3.35
2022-12-18T02:20:15.320Z,-3.35
2022-12-18T02:20:34.397Z,-3.35
2022-12-18T02:20:50.684Z,-3.34
2022-12-18T02:21:14.607Z,-3.37
2022-12-18T02:21:36.839Z,-3.38
2022-12-18T02:21:58.506Z,-3.39
2022-12-18T02:22:26.033Z,-3.41
2022-12-18T02:22:48.107Z,-3.42
2022-12-18T02:23:12.608Z,-3.43
2022-12-18T02:23:43.265Z,-3.43
2022-12-18T02:24:05.317Z,-3.43
2022-12-18T02:24:30.580Z,-3.42
2022-12-18T02:24:51.364Z,-3.41
2022-12-18T02:25:18.924Z,-3.39
2022-12-18T02:25:44.859Z,-3.38
2022-12-18T02:26:08.648Z,-3.38
2022-12-18T02:26:27.065Z,-3.36
2022-12-18T02:26:45.864Z,-3.35
2022-12-18T02:27:01.863Z,-3.34
2022-12-18T02:27:14.651Z,-3.34
2022-12-18T02:27:29.080Z,-3.34
2022-12-18T02:27:45.582Z,-3.34
2022-12-18T02:28:01.399Z,-3.34
2022-12-18T02:28:18.084Z,-3.32
2022-12-18T02:28:36.897Z,-3.32
2022-12-18T02:28:54.957Z,-3.32
2022-12-18T02:29:13.116Z,-3.32
2022-12-18T02:29:29.055Z,-3.31
2022-12-18T02:29:45.220Z,-3.31
2022-12-18T02:30:00.580Z,-3.31
2022-12-18T02:30:15.420Z,-3.31
2022-12-18T02:30:31.135Z,-3.30
2022-12-18T02:30:46.741Z,-3.30
2022-12-18T02:31:02.798Z,-3.29
2022-12-18T02:31:19.193Z,-3.29
2022-12-18T02:31:36.970Z,-3.27
2022-12-18T02:31:53.736Z,-3.27
2022-12-18T02:32:13.133Z,-3.27
2022-12-18T02:32:33.886Z,-3.25
2022-12-18T02:32:49.932Z,-3.25
2022-12-18T02:33:06.106Z,-3.24
2022-12-18T02:33:22.061Z,-3.24
2022-12-18T02:33:37.441Z,-3.25
2022-12-18T02:33:51.624Z,-3.24
2022-12-18T02:34:08.893Z,-3.23
2022-12-18T02:34:27.150Z,-3.23
2022-12-18T02:34:41.980Z,-3.23
2022-12-18T02:34:57.532Z,-3.21
2022-12-18T02:35:16.214Z,-3.22
2022-12-18T02:35:31.772Z,-3.22
2022-12-18T02:35:47.572Z,-3.22
2022-12-18T02:36:01.925Z,-3.22
2022-12-18T02:36:16.697Z,-3.22
2022-12-18T02:36:31.112Z,-3.24
2022-12-18T02:36:46.845Z,-3.24
2022-12-18T02:37:02.939Z,-3.25
2022-12-18T02:37:20.448Z,-3.25
2022-12-18T02:37:35.198Z,-3.26
2022-12-18T02:37:48.632Z,-3.26
2022-12-18T02:38:05.774Z,-3.25
2022-12-18T02:38:18.864Z,-3.25
2022-12-18T02:38:32.770Z,-3.25
2022-12-18T02:38:46.794Z,-3.24
2022-12-18T02:39:01.885Z,-3.25
2022-12-18T02:39:16.754Z,-3.24
2022-12-18T02:39:32.004Z,-3.23
2022-12-18T02:39:47.789Z,-3.22
2022-12-18T02:40:01.379Z,-3.23
2022-12-18T02:40:15.922Z,-3.22
2022-12-18T02:40:29.518Z,-3.22
2022-12-18T02:40:44.384Z,-3.23
2022-12-18T02:40:58.642Z,-3.23
2022-12-18T02:41:14.185Z,-3.24
2022-12-18T02:41:27.430Z,-3.26
2022-12-18T02:41:40.870Z,-3.25
2022-12-18T02:41:53.847Z,-3.25
2022-12-18T02:42:09.185Z,-3.26
2022-12-18T02:42:22.894Z,-3.26
2022-12-18T02:42:35.853Z,-3.26
2022-12-18T02:42:48.461Z,-3.26
2022-12-18T02:43:04.444Z,-3.25
2022-12-18T02:43:17.138Z,-3.25
2022-12-18T02:43:31.067Z,-3.24
2022-12-18T02:43:52.282Z,-3.24
2022-12-18T02:44:10.969Z,-3.23
2022-12-18T02:44:23.568Z,-3.22
2022-12-18T02:44:36.499Z,-3.21
2022-12-18T02:44:51.361Z,-3.22
2022-12-18T02:45:04.613Z,-3.21
2022-12-18T02:45:18.448Z,-3.21
2022-12-18T02:45:31.169Z,-3.21
2022-12-18T02:45:48.330Z,-3.20
2022-12-18T02:46:22.456Z,-3.20
2022-12-18T02:46:38.809Z,-3.19
2022-12-18T02:46:54.300Z,-3.20
2022-12-18T02:47:07.223Z,-3.20
2022-12-18T02:47:22.848Z,-3.20
2022-12-18T02:47:38.399Z,-3.19
2022-12-18T02:47:51.670Z,-3.18
2022-12-18T02:48:04.646Z,-3.18
2022-12-18T02:48:18.965Z,-3.18
2022-12-18T02:48:34.682Z,-3.18
2022-12-18T02:48:47.894Z,-3.18
2022-12-18T02:49:10.112Z,-3.17
2022-12-18T02:49:33.061Z,-3.17
2022-12-18T02:49:56.415Z,-3.18
2022-12-18T02:50:15.145Z,-3.18
2022-12-18T02:50:35.612Z,-3.20
2022-12-18T02:51:00.143Z,-3.22
2022-12-18T02:51:23.039Z,-3.23
2022-12-18T02:51:47.253Z,-3.22
2022-12-18T02:52:09.467Z,-3.22
2022-12-18T02:52:32.736Z,-3.21
2022-12-18T02:52:56.931Z,-3.22
2022-12-18T02:53:18.580Z,-3.23
2022-12-18T02:53:39.163Z,-3.24
2022-12-18T02:53:57.344Z,-3.23
2022-12-18T02:54:17.917Z,-3.23
2022-12-18T02:54:44.753Z,-3.23
2022-12-18T02:55:08.062Z,-3.22
2022-12-18T02:55:33.799Z,-3.21
2022-12-18T02:55:57.091Z,-3.19
2022-12-18T02:56:18.708Z,-3.19
2022-12-18T02:56:36.417Z,-3.19
2022-12-18T02:56:55.270Z,-3.18
2022-12-18T02:57:17.768Z,-3.18
2022-12-18T02:57:37.494Z,-3.19
2022-12-18T02:57:55.099Z,-3.18
2022-12-18T02:58:17.541Z,-3.17
2022-12-18T02:58:40.124Z,-3.16
2022-12-18T02:58:59.747Z,-3.14
2022-12-18T02:59:16.706Z,-3.14
2022-12-18T02:59:36.472Z,-3.13
2022-12-18T02:59:57.574Z,-3.15
2022-12-18T03:00:14.176Z,-3.15
2022-12-18T03:00:32.885Z,-3.15
2022-12-18T03:00:55.651Z,-3.17
2022-12-18T03:01:14.906Z,-3.16
2022-12-18T03:01:37.468Z,-3.16
2022-12-18T03:01:57.231Z,-3.15
2022-12-18T03:02:20.067Z,-3.15
2022-12-18T03:02:40.255Z,-3.14
2022-12-18T03:02:59.901Z,-3.13
2022-12-18T03:03:17.791Z,-3.11
2022-12-18T03:03:37.452Z,-3.10
2022-12-18T03:03:56.425Z,-3.09
2022-12-18T03:04:17.674Z,-3.08
2022-12-18T03:04:35.677Z,-3.09
2022-12-18T03:04:56.867Z,-3.08
2022-12-18T03:05:15.200Z,-3.07
2022-12-18T03:05:34.753Z,-3.07
2022-12-18T03:05:51.785Z,-3.08
2022-12-18T03:06:10.730Z,-3.08
2022-12-18T03:06:26.549Z,-3.08
2022-12-18T03:06:42.955Z,-3.07
2022-12-18T03:06:58.203Z,-3.06
2022-12-18T03:07:17.075Z,-3.06
2022-12-18T03:07:39.121Z,-3.04
2022-12-18T03:07:58.994Z,-3.05
2022-12-18T03:08:15.496Z,-3.04
2022-12-18T03:08:30.203Z,-3.05
2022-12-18T03:08:46.385Z,-3.05
2022-12-18T03:09:02.268Z,-3.05
2022-12-18T03:09:21.019Z,-3.07
2022-12-18T03:09:37.739Z,-3.07
2022-12-18T03:09:54.241Z,-3.06
2022-12-18T03:10:10.928Z,-3.07
2022-12-18T03:10:28.924Z,-3.07
2022-12-18T03:10:52.914Z,-3.06
2022-12-18T03:11:08.847Z,-3.04
2022-12-18T03:11:41.916Z,-3.05
2022-12-18T03:12:16.188Z,-3.04
2022-12-18T03:12:34.571Z,-3.03
2022-12-18T03:12:53.435Z,-3.03
2022-12-18T03:13:09.555Z,-3.03
2022-12-18T03:13:32.738Z,-3.01
2022-12-18T03:13:50.566Z,-3.02
2022-12-18T03:14:07.563Z,-3.01
2022-12-18T03:14:23.491Z,-3.01
2022-12-18T03:14:39.095Z,-3.02
2022-12-18T03:14:56.748Z,-3.02
2022-12-18T03:15:17.665Z,-3.02
2022-12-18T03:15:34.940Z,-3.01
2022-12-18T03:15:51.505Z,-3.02
2022-12-18T03:16:07.458Z,-3.00
2022-12-18T03:16:26.578Z,-3.00
2022-12-18T03:16:42.130Z,-3.01
2022-12-18T03:17:00.851Z,-3.00
2022-12-18T03:17:19.044Z,-3.01
2022-12-18T03:17:34.595Z,-2.99
2022-12-18T03:17:54.029Z,-3.00
2022-12-18T03:18:16.167Z,-2.99